KMVN/MVN METAR and TAF weather

Enter ICAO airport designator
Station Type Date Time Source
KMVN METAR 2021/07/27 21:56 UTC NOAA

KMVN 272156Z AUTO 10005KT 10SM FEW044 32/22 A3002 RMK AO2 SLP166 T03170217


Station Type Date Time Source
KMVN Decoded METAR 2021/07/27 21:56 UTC NOAA

Mount Vernon, Mount Vernon Airport, IL, United States (KMVN) 38-19N 088-52W
Jul 27, 2021 - 05:56 PM EDT / 2021.07.27 2156 UTC
Wind: from the E (100 degrees) at 6 MPH (5 KT):0
Visibility: 10 mile(s):0
Sky conditions: mostly clear
Temperature: 89.1 F (31.7 C)
Heat index: 95.2 F (35.1 C):1
Dew Point: 71.1 F (21.7 C)
Relative Humidity: 55%
Pressure (altimeter): 30.02 in. Hg (1016 hPa)
ob: KMVN 272156Z AUTO 10005KT 10SM FEW044 32/22 A3002 RMK AO2 SLP166 T03170217
cycle: 22

Station Type Date Time Source
KMVN TAF 2021/07/27 18:24 UTC NOAA

TAF KMVN 271721Z 2718/2818 04004KT P6SM SKC
FM280200 00000KT 6SM BR SKC
TEMPO 2804/2808 3SM BR
FM280800 00000KT 3SM BR SKC
TEMPO 2808/2812 1SM BR
FM281230 VRB03KT P6SM SKC

Example: see airport list